Time;durP1;ratioP1;P1;durP2;ratioP2;P2;SDS_P1;SDS_P2;PMS_P1;PMS_P2;Temp;Humidity;BMP_temperature;BMP_pressure;BME280_temperature;BME280_humidity;BME280_pressure;Samples;Min_cycle;Max_cycle;Signal;HPM_P1;HPM_P2
2022/06/15 00:00:46;;;;;;;9.77;3.65;;;;;;;14.13;65.28;101843.31;4993274;28;20060;-57
2022/06/15 00:03:13;;;;;;;6.97;3.30;;;;;;;14.13;65.04;101840.66;4973753;28;20042;-56
2022/06/15 00:05:42;;;;;;;8.18;3.20;;;;;;;14.11;65.75;101837.25;4993404;28;20037;-57
2022/06/15 00:08:08;;;;;;;9.40;3.50;;;;;;;14.12;65.16;101835.41;4990822;28;20027;-57
2022/06/15 00:10:33;;;;;;;5.68;3.50;;;;;;;14.04;65.23;101834.19;4992215;28;20050;-56
2022/06/15 00:12:59;;;;;;;5.72;3.47;;;;;;;14.04;65.15;101839.53;4992242;28;20073;-57
2022/06/15 00:15:24;;;;;;;6.13;3.47;;;;;;;13.97;65.97;101838.31;4975499;28;20034;-56
2022/06/15 00:17:49;;;;;;;8.73;3.40;;;;;;;13.92;65.68;101834.25;4992868;28;20033;-57
2022/06/15 00:20:15;;;;;;;6.57;3.38;;;;;;;13.88;66.48;101834.47;4975262;28;20022;-56
2022/06/15 00:22:41;;;;;;;7.80;3.55;;;;;;;13.85;66.42;101842.72;4992411;28;20065;-56
2022/06/15 00:25:08;;;;;;;8.25;3.80;;;;;;;13.81;65.49;101835.91;4992643;28;20430;-56
2022/06/15 00:27:34;;;;;;;8.48;3.78;;;;;;;13.75;66.36;101830.19;4987282;28;20050;-56
2022/06/15 00:29:59;;;;;;;8.82;3.80;;;;;;;13.71;66.92;101831.38;4975521;28;20026;-57
2022/06/15 00:32:24;;;;;;;9.40;3.63;;;;;;;13.68;66.47;101829.78;4990923;28;20038;-57
2022/06/15 00:34:49;;;;;;;9.02;4.05;;;;;;;13.58;66.42;101828.75;4992806;28;20366;-56
2022/06/15 00:37:15;;;;;;;8.02;3.78;;;;;;;13.58;67.03;101834.94;4992648;28;20053;-57
2022/06/15 00:39:40;;;;;;;10.40;3.65;;;;;;;13.56;66.83;101826.22;4992804;28;20031;-57
2022/06/15 00:42:06;;;;;;;8.48;4.13;;;;;;;13.50;67.27;101823.97;4991999;28;20054;-56
2022/06/15 00:44:37;;;;;;;6.90;3.78;;;;;;;13.48;66.95;101825.91;4992656;28;20046;-57
2022/06/15 00:47:28;;;;;;;5.85;3.78;;;;;;;13.47;67.32;101822.41;4992515;28;20109;-57
2022/06/15 00:50:09;;;;;;;9.38;4.00;;;;;;;13.42;67.35;101819.22;4984441;28;20070;-57
2022/06/15 00:52:42;;;;;;;5.53;3.60;;;;;;;13.37;67.45;101817.84;4988958;28;20041;-56
2022/06/15 00:55:14;;;;;;;8.35;3.88;;;;;;;13.32;67.89;101818.16;4992513;28;20027;-56
2022/06/15 00:57:40;;;;;;;7.90;4.38;;;;;;;13.29;68.40;101815.72;4992087;28;20077;-57
2022/06/15 01:00:07;;;;;;;8.85;4.50;;;;;;;13.27;67.96;101817.63;4992588;28;20018;-57
2022/06/15 01:02:35;;;;;;;6.18;3.92;;;;;;;13.23;68.66;101821.50;4991806;28;20040;-56
2022/06/15 01:05:47;;;;;;;8.43;4.30;;;;;;;13.25;67.07;101811.53;4992651;28;20030;-57
2022/06/15 01:08:18;;;;;;;10.05;4.00;;;;;;;13.21;67.64;101807.41;4992282;28;20050;-56
2022/06/15 01:11:24;;;;;;;7.25;4.40;;;;;;;13.21;67.63;101805.59;4991894;28;20552;-57
2022/06/15 01:14:15;;;;;;;12.50;4.20;;;;;;;13.16;68.32;101807.75;4986305;28;20029;-56
2022/06/15 01:16:49;;;;;;;7.82;4.13;;;;;;;13.12;68.55;101808.91;4973790;28;20022;-56
2022/06/15 01:19:53;;;;;;;8.93;4.15;;;;;;;13.13;67.31;101814.13;4985858;28;20126;-56
2022/06/15 01:23:00;;;;;;;9.43;4.10;;;;;;;13.06;68.38;101806.69;4989690;28;20022;-56
2022/06/15 01:25:35;;;;;;;9.10;4.38;;;;;;;12.95;69.69;101810.97;4991962;28;20026;-56
2022/06/15 01:28:28;;;;;;;10.05;4.65;;;;;;;12.92;69.46;101808.53;4992707;28;20494;-56
2022/06/15 01:31:41;;;;;;;10.57;4.28;;;;;;;12.93;69.15;101809.38;4981520;28;20026;-57
2022/06/15 01:34:09;;;;;;;6.75;3.95;;;;;;;12.87;69.23;101804.47;4895781;29;20473;-56
2022/06/15 01:36:59;;;;;;;8.23;4.38;;;;;;;12.92;68.61;101807.66;4974528;28;20045;-57
2022/06/15 01:39:35;;;;;;;8.52;4.60;;;;;;;12.85;69.78;101806.41;4987709;28;20037;-56
2022/06/15 01:42:09;;;;;;;6.50;4.07;;;;;;;12.82;70.30;101798.63;4992111;28;20030;-57
2022/06/15 01:44:53;;;;;;;9.35;4.55;;;;;;;12.83;70.13;101800.34;4984910;28;20037;-56
2022/06/15 01:47:22;;;;;;;8.70;4.28;;;;;;;12.80;70.75;101797.88;4994581;28;20023;-56
2022/06/15 01:50:12;;;;;;;7.45;4.47;;;;;;;12.87;68.88;101799.16;4994687;28;20394;-56
2022/06/15 01:52:43;;;;;;;6.22;4.38;;;;;;;12.78;70.10;101798.84;4993970;28;20038;-57
2022/06/15 01:55:14;;;;;;;5.97;4.05;;;;;;;12.81;69.88;101788.94;4994223;28;20030;-57
2022/06/15 01:57:45;;;;;;;7.63;4.50;;;;;;;12.76;70.47;101790.09;4984375;28;20181;-57
2022/06/15 02:00:16;;;;;;;7.53;4.20;;;;;;;12.78;69.80;101790.84;4994486;28;20490;-56
2022/06/15 02:03:02;;;;;;;9.50;4.15;;;;;;;12.78;69.78;101795.31;4994542;28;20023;-56
2022/06/15 02:06:01;;;;;;;8.82;4.57;;;;;;;12.77;69.21;101788.28;4994997;28;20053;-57
2022/06/15 02:08:35;;;;;;;8.03;4.60;;;;;;;12.70;70.52;101782.53;4993362;28;20417;-57
2022/06/15 02:11:24;;;;;;;8.85;4.30;;;;;;;12.65;70.35;101782.00;4994532;28;20132;-57
2022/06/15 02:14:14;;;;;;;8.95;4.22;;;;;;;12.69;69.53;101786.19;4981309;28;20050;-57
2022/06/15 02:16:52;;;;;;;6.22;4.45;;;;;;;12.63;70.47;101783.94;4994007;28;20548;-56
2022/06/15 02:19:30;;;;;;;8.27;4.50;;;;;;;12.59;71.20;101777.13;4985520;28;20031;-56
2022/06/15 02:21:57;;;;;;;9.15;4.22;;;;;;;12.61;70.92;101772.53;4993668;28;20065;-57
2022/06/15 02:24:25;;;;;;;7.88;4.30;;;;;;;12.59;70.79;101783.31;4994984;28;20038;-57
2022/06/15 02:26:50;;;;;;;8.88;4.60;;;;;;;12.56;71.21;101780.84;4994046;28;20049;-57
2022/06/15 02:29:22;;;;;;;7.78;4.68;;;;;;;12.56;71.18;101774.66;4994057;28;20115;-56
2022/06/15 02:31:48;;;;;;;9.38;4.47;;;;;;;12.50;71.29;101769.75;4992990;28;20042;-57
2022/06/15 02:34:13;;;;;;;8.65;4.55;;;;;;;12.50;71.38;101772.44;4994526;28;20026;-56
2022/06/15 02:36:40;;;;;;;8.35;4.45;;;;;;;12.49;71.18;101771.59;4996071;28;20070;-57
2022/06/15 02:39:07;;;;;;;7.28;4.47;;;;;;;12.46;71.30;101771.78;4993442;28;20113;-57
2022/06/15 02:41:34;;;;;;;11.60;4.30;;;;;;;12.44;71.55;101770.19;4993077;28;20064;-56
2022/06/15 02:44:01;;;;;;;8.07;4.68;;;;;;;12.42;71.38;101766.78;4993959;28;20040;-56
2022/06/15 02:46:31;;;;;;;9.35;4.13;;;;;;;12.40;71.25;101759.72;4979842;28;20030;-58
2022/06/15 02:48:57;;;;;;;6.03;4.30;;;;;;;12.38;71.36;101756.34;4994490;28;20035;-58
2022/06/15 02:51:32;;;;;;;7.28;4.10;;;;;;;12.37;71.47;101759.97;4991926;28;20441;-58
2022/06/15 02:54:02;;;;;;;11.18;5.15;;;;;;;12.29;72.43;101754.31;4994162;28;20034;-58
2022/06/15 02:56:28;;;;;;;8.25;4.55;;;;;;;12.31;72.05;101754.22;4992540;28;20054;-56
2022/06/15 02:58:57;;;;;;;9.55;4.72;;;;;;;12.30;72.00;101753.34;4994161;28;20474;-57
2022/06/15 03:01:23;;;;;;;8.77;4.60;;;;;;;12.28;72.57;101754.44;4991901;28;20042;-57
2022/06/15 03:03:48;;;;;;;6.80;4.28;;;;;;;12.23;72.74;101753.91;4989937;28;20096;-58
2022/06/15 03:06:17;;;;;;;9.93;4.97;;;;;;;12.22;72.54;101758.34;4976500;28;20023;-57
2022/06/15 03:08:42;;;;;;;7.95;4.20;;;;;;;12.24;72.33;101763.56;4994253;28;20045;-56
2022/06/15 03:11:08;;;;;;;7.15;4.45;;;;;;;12.18;72.72;101759.53;4993158;28;20019;-57
2022/06/15 03:13:33;;;;;;;6.63;4.18;;;;;;;12.14;72.46;101758.91;4992930;28;20031;-57
2022/06/15 03:16:01;;;;;;;7.78;4.43;;;;;;;12.15;72.07;101751.75;4993902;28;20042;-57
2022/06/15 03:18:27;;;;;;;8.52;4.80;;;;;;;12.17;72.16;101760.47;4993485;28;20620;-58
2022/06/15 03:20:57;;;;;;;8.85;4.10;;;;;;;12.17;72.14;101758.69;4993991;28;20033;-57
2022/06/15 03:23:22;;;;;;;8.63;4.22;;;;;;;12.11;72.68;101759.09;4993636;28;20053;-57
2022/06/15 03:26:00;;;;;;;6.78;4.57;;;;;;;12.13;72.84;101759.00;4993299;28;20074;-57
2022/06/15 03:28:25;;;;;;;7.10;4.35;;;;;;;12.10;72.68;101762.72;4993338;28;20042;-58
2022/06/15 03:30:52;;;;;;;8.82;4.63;;;;;;;12.12;72.26;101759.94;4993891;28;20018;-57
2022/06/15 03:33:18;;;;;;;8.32;4.75;;;;;;;12.11;72.46;101760.91;4993619;28;20033;-57
2022/06/15 03:35:44;;;;;;;9.30;4.65;;;;;;;12.09;72.93;101760.16;4993210;28;20090;-58
2022/06/15 03:38:10;;;;;;;8.48;4.85;;;;;;;12.09;72.58;101765.47;4976166;28;20536;-58
2022/06/15 03:40:40;;;;;;;11.32;4.78;;;;;;;12.10;72.48;101770.69;4991987;28;20034;-57
2022/06/15 03:43:06;;;;;;;7.38;4.68;;;;;;;12.06;73.07;101773.66;4982891;28;20034;-57
2022/06/15 03:45:32;;;;;;;9.75;5.00;;;;;;;12.03;73.34;101767.59;4993414;28;20097;-57
2022/06/15 03:47:59;;;;;;;8.65;4.70;;;;;;;12.06;73.16;101771.00;4993233;28;20481;-57
2022/06/15 03:50:26;;;;;;;9.02;4.80;;;;;;;11.99;73.75;101770.56;4990843;28;20040;-57
2022/06/15 03:52:52;;;;;;;8.63;4.85;;;;;;;12.03;73.50;101770.25;4993297;28;20544;-57
2022/06/15 03:55:19;;;;;;;6.72;4.72;;;;;;;12.02;73.00;101773.03;4992755;28;20034;-57
2022/06/15 03:57:45;;;;;;;7.22;4.82;;;;;;;12.02;73.37;101771.25;4992788;28;20030;-56
2022/06/15 04:00:13;;;;;;;7.13;4.80;;;;;;;12.03;73.44;101770.25;4992746;28;20019;-57
2022/06/15 04:02:39;;;;;;;8.18;5.03;;;;;;;12.03;73.00;101766.75;4974876;28;20030;-57
2022/06/15 04:05:05;;;;;;;14.63;4.95;;;;;;;12.04;72.73;101773.81;4991754;28;20477;-56
2022/06/15 04:10:14;;;;;;;7.68;4.90;;;;;;;12.07;73.00;101778.06;4992715;28;20049;-56
2022/06/15 04:12:39;;;;;;;8.13;4.80;;;;;;;12.07;73.31;101767.41;4975462;28;20026;-56
2022/06/15 04:15:06;;;;;;;8.90;4.95;;;;;;;12.09;73.68;101778.78;4993064;28;20064;-58
2022/06/15 04:17:31;;;;;;;9.95;5.50;;;;;;;12.09;73.49;101773.47;4992681;28;20038;-58
2022/06/15 04:22:40;;;;;;;11.48;5.50;;;;;;;12.10;73.71;101770.69;4992635;28;20045;-56
2022/06/15 04:25:06;;;;;;;8.57;5.30;;;;;;;12.13;73.32;101765.16;4975603;28;20023;-56
2022/06/15 04:27:32;;;;;;;8.93;5.10;;;;;;;12.14;73.02;101771.34;4992057;28;20129;-56
2022/06/15 04:29:59;;;;;;;9.05;5.22;;;;;;;12.16;73.37;101767.63;4992709;28;20470;-56
2022/06/15 04:32:24;;;;;;;13.27;5.28;;;;;;;12.21;73.02;101769.97;4992267;28;20126;-57
2022/06/15 04:34:49;;;;;;;8.85;5.40;;;;;;;12.25;73.15;101763.47;4992565;28;20499;-57
2022/06/15 04:37:15;;;;;;;9.75;5.07;;;;;;;12.30;72.66;101764.00;4992580;28;20049;-57
2022/06/15 04:39:40;;;;;;;8.52;4.97;;;;;;;12.36;73.29;101766.25;4992083;28;20033;-56
2022/06/15 04:42:06;;;;;;;15.70;5.25;;;;;;;12.43;72.60;101765.84;4992748;28;20375;-56
2022/06/15 04:44:31;;;;;;;8.88;5.40;;;;;;;12.52;72.56;101763.38;4992422;28;20041;-56
2022/06/15 04:46:58;;;;;;;14.15;5.13;;;;;;;12.64;72.36;101771.44;4992450;28;20045;-57
2022/06/15 04:49:23;;;;;;;11.20;5.63;;;;;;;12.74;72.47;101775.19;4992589;28;20026;-56
2022/06/15 04:51:48;;;;;;;11.75;5.20;;;;;;;12.85;72.35;101774.41;4991962;28;20042;-56
2022/06/15 04:54:14;;;;;;;12.57;5.50;;;;;;;12.96;71.68;101770.00;4975167;28;20062;-57
2022/06/15 04:56:39;;;;;;;9.88;5.40;;;;;;;13.10;71.05;101770.84;4992370;28;20505;-57
2022/06/15 04:59:05;;;;;;;11.75;5.72;;;;;;;13.24;70.90;101775.16;4992595;28;20018;-58
2022/06/15 05:01:30;;;;;;;11.02;5.40;;;;;;;13.36;70.27;101771.63;4981095;28;20062;-57
2022/06/15 05:03:55;;;;;;;9.70;5.00;;;;;;;13.51;69.67;101777.66;4990639;28;20058;-57
2022/06/15 05:06:21;;;;;;;8.88;5.30;;;;;;;13.67;69.28;101772.88;4992498;28;20465;-58
2022/06/15 05:08:46;;;;;;;8.60;5.10;;;;;;;13.79;68.42;101768.44;4992324;28;20076;-57
2022/06/15 05:11:11;;;;;;;11.07;5.22;;;;;;;13.97;67.56;101778.66;4995635;28;20084;-57
2022/06/15 05:13:37;;;;;;;10.93;4.85;;;;;;;14.09;67.95;101776.88;4994689;28;20117;-56
2022/06/15 05:16:02;;;;;;;9.73;5.13;;;;;;;14.20;67.52;101776.91;4978443;28;20065;-57
2022/06/15 05:18:27;;;;;;;8.73;5.13;;;;;;;14.33;66.60;101779.50;4993788;28;20105;-55
2022/06/15 05:20:53;;;;;;;12.82;5.30;;;;;;;14.40;66.57;101780.72;4995683;28;20030;-58
2022/06/15 05:23:19;;;;;;;12.05;5.28;;;;;;;14.43;65.50;101777.81;4995512;28;20025;-58
2022/06/15 05:25:44;;;;;;;10.45;5.20;;;;;;;14.51;65.88;101771.88;4995716;28;20403;-58
2022/06/15 05:28:12;;;;;;;10.13;5.63;;;;;;;14.61;66.23;101776.38;4995532;28;20096;-57
2022/06/15 05:30:38;;;;;;;12.65;5.13;;;;;;;14.72;64.88;101775.56;4995682;28;20733;-58
2022/06/15 05:33:04;;;;;;;9.88;5.22;;;;;;;14.90;64.61;101777.72;4993040;28;20485;-58
2022/06/15 05:35:30;;;;;;;8.90;5.28;;;;;;;15.07;64.42;101782.56;4995963;28;20038;-57
2022/06/15 05:37:56;;;;;;;10.70;5.50;;;;;;;15.22;63.55;101780.47;4995574;28;20076;-57
2022/06/15 05:40:21;;;;;;;9.77;5.20;;;;;;;15.44;62.89;101774.22;4995712;28;20567;-57
2022/06/15 05:42:47;;;;;;;10.40;5.45;;;;;;;15.64;62.63;101782.44;4976936;28;20044;-56
2022/06/15 05:45:12;;;;;;;11.23;5.30;;;;;;;15.82;62.04;101777.38;4994023;28;20054;-57
2022/06/15 05:47:38;;;;;;;10.65;5.03;;;;;;;16.09;62.39;101782.25;4977417;28;20026;-58
2022/06/15 05:50:06;;;;;;;10.45;4.85;;;;;;;16.31;60.38;101786.59;4995503;28;20105;-57
2022/06/15 05:52:31;;;;;;;12.30;5.68;;;;;;;16.44;59.71;101775.69;4994983;28;20485;-57
2022/06/15 05:55:01;;;;;;;9.07;4.93;;;;;;;16.62;59.12;101779.44;4994437;28;20054;-58
2022/06/15 05:57:27;;;;;;;7.72;5.15;;;;;;;16.88;58.49;101781.66;4988849;28;20069;-58
2022/06/15 05:59:55;;;;;;;8.52;4.90;;;;;;;17.16;58.40;101772.00;4990629;28;20046;-58
2022/06/15 06:02:22;;;;;;;12.73;5.07;;;;;;;17.46;57.57;101772.91;4994466;28;20046;-58
2022/06/15 06:04:49;;;;;;;12.52;5.40;;;;;;;17.71;57.05;101779.56;4992767;28;20026;-59
2022/06/15 06:07:14;;;;;;;10.07;5.00;;;;;;;17.91;55.75;101780.41;4995108;28;20029;-59
2022/06/15 06:09:40;;;;;;;6.43;4.90;;;;;;;17.99;54.68;101774.34;4990250;28;20026;-57
2022/06/15 06:12:07;;;;;;;9.18;4.93;;;;;;;18.22;54.40;101779.38;4979720;28;20082;-58
2022/06/15 06:14:32;;;;;;;8.18;4.50;;;;;;;18.33;53.51;101767.63;5003836;28;20053;-58
2022/06/15 06:16:58;;;;;;;8.57;4.95;;;;;;;18.46;53.62;101773.53;4996363;28;20064;-58
2022/06/15 06:19:23;;;;;;;10.73;5.00;;;;;;;18.64;53.19;101774.44;4997093;28;20470;-58
2022/06/15 06:21:48;;;;;;;10.20;5.00;;;;;;;18.76;52.98;101760.81;4995848;28;20077;-58
2022/06/15 06:24:14;;;;;;;10.27;4.60;;;;;;;18.92;53.06;101777.19;4992376;28;20113;-58
2022/06/15 06:26:42;;;;;;;8.65;4.70;;;;;;;19.18;52.44;101765.69;4979760;28;20042;-58
2022/06/15 06:29:11;;;;;;;11.68;5.15;;;;;;;19.40;51.17;101770.66;4993667;28;20038;-59
2022/06/15 06:31:36;;;;;;;;;;;;;;;19.57;53.96;101774.34;4992309;28;20082;-59
2022/06/15 06:34:01;;;;;;;10.23;4.63;;;;;;;19.69;50.23;101774.97;4992723;28;19925;-58
2022/06/15 06:36:31;;;;;;;8.10;4.78;;;;;;;19.84;50.63;101769.91;4991770;28;20080;-58
2022/06/15 06:38:57;;;;;;;9.68;4.70;;;;;;;20.04;50.71;101773.25;4992413;28;20035;-59
2022/06/15 06:41:25;;;;;;;11.95;5.03;;;;;;;20.27;49.27;101770.88;4992053;28;20073;-57
2022/06/15 06:43:50;;;;;;;8.20;4.43;;;;;;;20.34;48.45;101780.03;4991606;28;20601;-57
2022/06/15 06:46:16;;;;;;;8.70;4.00;;;;;;;20.49;48.29;101774.06;4991162;28;20030;-57
2022/06/15 06:48:42;;;;;;;6.57;4.13;;;;;;;20.72;47.66;101777.06;4974473;28;20100;-58
2022/06/15 06:51:07;;;;;;;8.02;4.22;;;;;;;20.93;47.01;101779.34;4992333;28;20030;-58
2022/06/15 06:53:32;;;;;;;8.50;4.32;;;;;;;21.09;46.73;101781.25;4991765;28;20049;-57
2022/06/15 06:56:06;;;;;;;11.00;4.57;;;;;;;21.30;47.62;101783.53;4991647;28;20073;-58
2022/06/15 06:58:32;;;;;;;8.88;4.53;;;;;;;21.60;46.08;101779.38;4991627;28;20046;-58
2022/06/15 07:00:57;;;;;;;8.20;4.05;;;;;;;21.73;45.66;101786.13;4990944;28;20096;-58
2022/06/15 07:03:23;;;;;;;8.32;4.22;;;;;;;21.85;45.28;101783.94;4989241;28;20502;-57
2022/06/15 07:05:48;;;;;;;9.43;3.97;;;;;;;22.11;44.29;101786.47;4989750;28;20429;-57
2022/06/15 07:08:14;;;;;;;10.80;4.18;;;;;;;22.35;44.45;101785.63;4991639;28;20026;-57
2022/06/15 07:10:40;;;;;;;7.13;4.00;;;;;;;22.45;43.94;101790.81;4993561;28;20022;-58
2022/06/15 07:13:06;;;;;;;7.03;3.85;;;;;;;22.65;43.93;101789.44;4993748;28;20049;-58
2022/06/15 07:15:31;;;;;;;9.40;3.92;;;;;;;22.86;43.16;101785.28;4993820;28;20089;-58
2022/06/15 07:17:58;;;;;;;7.53;3.88;;;;;;;23.02;41.69;101789.78;4993683;28;20034;-57
2022/06/15 07:20:24;;;;;;;10.20;3.90;;;;;;;23.04;41.43;101794.00;4993460;28;20053;-57
2022/06/15 07:22:49;;;;;;;10.13;4.00;;;;;;;23.15;41.13;101791.94;4993694;28;20026;-57
2022/06/15 07:25:15;;;;;;;11.27;4.40;;;;;;;23.30;42.02;101786.59;4991757;28;20076;-58
2022/06/15 07:27:41;;;;;;;9.90;4.25;;;;;;;23.53;40.76;101800.19;4986220;28;20137;-58
2022/06/15 07:30:13;;;;;;;7.85;3.90;;;;;;;23.61;41.10;101790.13;4993321;28;20033;-58
2022/06/15 07:32:40;;;;;;;8.73;4.15;;;;;;;23.66;40.22;101795.00;4984541;28;20497;-58
2022/06/15 07:35:06;;;;;;;8.93;4.03;;;;;;;24.13;40.61;101787.69;4991208;28;20026;-57
2022/06/15 07:37:32;;;;;;;8.98;3.90;;;;;;;24.08;38.94;101790.97;4992492;28;20046;-58
2022/06/15 07:39:58;;;;;;;5.65;3.97;;;;;;;24.18;38.82;101798.81;4992775;28;20035;-58
2022/06/15 07:42:23;;;;;;;7.63;3.50;;;;;;;24.17;39.09;101791.72;4990343;28;20113;-58
2022/06/15 07:44:49;;;;;;;9.73;4.27;;;;;;;24.14;38.89;101790.22;4990800;28;20088;-58
2022/06/15 07:49:59;;;;;;;9.70;4.28;;;;;;;24.56;38.91;101796.94;4988946;28;20112;-58
2022/06/15 07:52:33;;;;;;;8.98;3.83;;;;;;;24.93;38.83;101792.44;4975724;28;20030;-59
2022/06/15 07:54:58;;;;;;;11.02;4.10;;;;;;;25.03;38.25;101791.25;4989241;28;20026;-59
2022/06/15 07:57:23;;;;;;;6.88;3.67;;;;;;;25.29;38.00;101788.88;4991558;28;20074;-59
2022/06/15 07:59:49;;;;;;;7.65;3.85;;;;;;;25.38;36.71;101794.22;4991674;28;20077;-59
2022/06/15 08:02:15;;;;;;;14.52;4.05;;;;;;;25.54;36.05;101796.69;4989734;28;20359;-58
2022/06/15 08:04:40;;;;;;;7.32;3.60;;;;;;;25.58;34.97;101788.97;4991671;28;20581;-59
2022/06/15 08:07:08;;;;;;;6.13;3.50;;;;;;;25.78;35.44;101800.03;4990869;28;20041;-59
2022/06/15 08:09:33;;;;;;;9.90;4.07;;;;;;;25.72;35.13;101793.50;4991468;28;20035;-58
2022/06/15 08:12:11;;;;;;;12.13;4.20;;;;;;;26.13;35.69;101803.75;4990993;28;20030;-59
2022/06/15 08:14:42;;;;;;;11.05;3.50;;;;;;;26.20;34.82;101791.00;4991025;28;20722;-58
2022/06/15 08:17:15;;;;;;;13.38;4.03;;;;;;;26.39;35.18;101792.16;4992614;28;20032;-58
2022/06/15 08:19:45;;;;;;;6.68;3.55;;;;;;;26.47;35.04;101793.06;4989706;28;20026;-59
2022/06/15 08:22:11;;;;;;;8.00;3.83;;;;;;;26.57;34.23;101791.66;4991388;28;20031;-58
2022/06/15 08:24:38;;;;;;;9.88;3.30;;;;;;;26.74;34.22;101794.09;4991914;28;20041;-58
2022/06/15 08:27:04;;;;;;;8.68;3.38;;;;;;;26.99;33.92;101788.94;4990779;28;20138;-59
2022/06/15 08:29:31;;;;;;;10.52;3.10;;;;;;;27.19;33.92;101789.03;4992274;28;20062;-58
2022/06/15 08:31:57;;;;;;;5.93;2.92;;;;;;;27.14;32.20;101786.91;4992223;28;20071;-59
2022/06/15 08:34:27;;;;;;;10.52;2.97;;;;;;;27.34;32.08;101794.34;4974763;28;20034;-58
2022/06/15 08:36:52;;;;;;;7.13;2.95;;;;;;;27.07;31.45;101794.22;4991825;28;20133;-59
2022/06/15 08:39:18;;;;;;;7.50;3.03;;;;;;;27.27;31.97;101788.84;4991264;28;20534;-59
2022/06/15 08:41:58;;;;;;;10.82;3.00;;;;;;;27.30;31.88;101790.34;4973125;28;20482;-58
2022/06/15 08:44:55;;;;;;;10.88;3.10;;;;;;;27.50;32.39;101788.50;4994814;28;20029;-58
2022/06/15 08:47:39;;;;;;;8.57;3.40;;;;;;;27.70;33.06;101776.78;4971362;28;20038;-59
2022/06/15 08:50:21;;;;;;;9.95;3.90;;;;;;;27.79;32.48;101775.50;4992876;28;20135;-59
2022/06/15 08:53:00;;;;;;;8.25;3.20;;;;;;;27.84;30.88;101777.59;4994378;28;20530;-58
2022/06/15 08:55:36;;;;;;;5.97;2.65;;;;;;;27.91;30.88;101777.59;4994431;28;20022;-59
2022/06/15 08:58:09;;;;;;;7.55;2.58;;;;;;;28.03;30.93;101785.00;4989140;28;20034;-59
2022/06/15 09:00:38;;;;;;;8.45;2.80;;;;;;;28.44;31.04;101780.28;4993388;28;20548;-59
2022/06/15 09:03:15;;;;;;;;;;;;;;;28.89;32.46;101777.63;4976103;28;20370;-59
2022/06/15 09:05:56;;;;;;;11.82;3.28;;;;;;;28.87;29.50;101776.19;4977717;28;19968;-60
2022/06/15 09:08:27;;;;;;;6.95;3.05;;;;;;;28.88;29.42;101775.13;4990957;28;20466;-60
2022/06/15 09:11:14;;;;;;;11.23;3.30;;;;;;;28.96;30.40;101770.25;4995338;28;20097;-59
2022/06/15 09:14:13;;;;;;;8.43;2.90;;;;;;;29.11;30.16;101775.44;4977652;28;20031;-59
2022/06/15 09:17:01;;;;;;;9.40;3.03;;;;;;;29.11;29.80;101767.25;4994610;28;20418;-60
2022/06/15 09:19:32;;;;;;;9.95;3.00;;;;;;;28.74;27.51;101783.38;4994789;28;20022;-60
2022/06/15 09:22:03;;;;;;;9.05;3.13;;;;;;;28.97;28.93;101779.31;4990219;28;20108;-60
2022/06/15 09:24:39;;;;;;;6.65;2.40;;;;;;;29.28;29.16;101775.81;4994505;28;20053;-59
2022/06/15 09:27:13;;;;;;;9.63;2.95;;;;;;;29.59;28.71;101778.75;4994593;28;20049;-59
2022/06/15 09:29:45;;;;;;;6.72;3.40;;;;;;;29.68;28.13;101782.91;4987671;28;20146;-59
2022/06/15 09:32:17;;;;;;;6.85;2.75;;;;;;;29.62;28.36;101778.31;4990769;28;20026;-59
2022/06/15 09:35:13;;;;;;;5.75;3.10;;;;;;;29.74;27.81;101773.78;4990991;28;20030;-59
2022/06/15 09:37:40;;;;;;;6.85;3.05;;;;;;;29.79;27.55;101770.41;4978116;28;20054;-59
2022/06/15 09:40:07;;;;;;;9.18;3.30;;;;;;;29.89;27.47;101766.13;4992542;28;20046;-60
2022/06/15 09:43:10;;;;;;;11.88;3.47;;;;;;;30.20;28.65;101768.97;4975554;28;20071;-60
2022/06/15 09:46:07;;;;;;;9.00;3.00;;;;;;;30.22;26.69;101767.69;4992515;28;20359;-60
2022/06/15 09:48:51;;;;;;;8.93;3.22;;;;;;;30.14;27.04;101764.41;4963212;28;20050;-61
2022/06/15 09:51:48;;;;;;;10.05;2.83;;;;;;;30.53;27.93;101765.91;4974756;28;20092;-60
2022/06/15 09:54:36;;;;;;;6.30;3.00;;;;;;;30.42;26.82;101759.28;4990710;28;20033;-61
2022/06/15 09:57:02;;;;;;;5.43;2.92;;;;;;;30.65;26.04;101765.16;4990764;28;20393;-58
2022/06/15 09:59:33;;;;;;;6.45;2.83;;;;;;;30.59;26.03;101758.66;4993278;28;20019;-58
2022/06/15 10:01:58;;;;;;;9.35;3.22;;;;;;;30.70;26.02;101752.41;4973901;28;20113;-59
2022/06/15 10:04:27;;;;;;;8.30;2.85;;;;;;;30.76;25.79;101758.88;4992007;28;20105;-58
2022/06/15 10:07:16;;;;;;;8.30;3.03;;;;;;;31.12;27.23;101762.66;4994771;28;20053;-60
2022/06/15 10:09:50;;;;;;;8.02;3.25;;;;;;;30.75;25.22;101770.94;4994574;28;20088;-59
2022/06/15 10:15:18;;;;;;;8.07;2.90;;;;;;;31.27;24.59;101763.06;4981515;28;20053;-59
2022/06/15 10:17:50;;;;;;;7.15;2.80;;;;;;;31.42;24.95;101764.53;4976697;28;20027;-61
2022/06/15 10:20:24;;;;;;;8.00;2.65;;;;;;;31.49;25.06;101765.25;4994727;28;20504;-60
2022/06/15 10:22:54;;;;;;;8.18;3.10;;;;;;;31.65;24.32;101763.78;4994065;28;20034;-60
2022/06/15 10:25:21;;;;;;;8.15;3.00;;;;;;;31.86;24.36;101760.47;4993346;28;20026;-60
2022/06/15 10:27:47;;;;;;;7.63;3.17;;;;;;;32.06;23.78;101749.13;4994064;28;20042;-61
2022/06/15 10:30:12;;;;;;;9.65;2.97;;;;;;;32.01;24.05;101756.38;4994189;28;20038;-61
2022/06/15 10:32:57;;;;;;;5.87;2.73;;;;;;;32.20;24.56;101757.13;4994090;28;20034;-62
2022/06/15 10:35:22;;;;;;;10.75;2.80;;;;;;;32.20;24.17;101757.13;4981771;28;20293;-61
2022/06/15 10:37:51;;;;;;;8.40;2.80;;;;;;;32.34;24.37;101760.44;4994558;28;20356;-61
2022/06/15 10:40:22;;;;;;;7.78;2.75;;;;;;;32.34;24.94;101760.44;4994771;28;20018;-61
2022/06/15 10:42:59;;;;;;;7.32;2.90;;;;;;;32.41;24.41;101753.75;4993915;28;20037;-60
2022/06/15 10:45:35;;;;;;;5.88;3.00;;;;;;;32.33;23.90;101758.81;4987419;28;20034;-61
2022/06/15 10:48:06;;;;;;;6.13;2.63;;;;;;;32.45;23.17;101752.19;4994343;28;20112;-61
2022/06/15 10:50:57;;;;;;;8.25;3.00;;;;;;;32.95;24.83;101758.16;4987078;28;20040;-61
2022/06/15 10:53:48;;;;;;;6.38;2.72;;;;;;;33.03;25.31;101748.69;4983484;28;20476;-61
2022/06/15 11:02:38;;;;;;;6.85;2.85;;;;;;;32.93;24.21;101741.91;4994254;28;20101;-60
2022/06/15 11:05:09;;;;;;;8.38;2.70;;;;;;;32.95;24.34;101739.72;4993818;28;20038;-60
2022/06/15 11:07:42;;;;;;;9.60;2.90;;;;;;;32.88;24.04;101722.53;4993161;28;20390;-60
2022/06/15 11:10:23;;;;;;;8.05;2.85;;;;;;;32.82;23.12;101732.59;4993990;28;20030;-60
2022/06/15 11:12:57;;;;;;;5.85;2.45;;;;;;;32.77;23.77;101728.91;4994132;28;20038;-60
2022/06/15 11:18:37;;;;;;;6.18;2.75;;;;;;;32.75;24.24;101739.34;4993952;28;20093;-60
2022/06/15 11:21:05;;;;;;;8.40;2.85;;;;;;;32.81;23.40;101732.88;4993957;28;20064;-60
2022/06/15 11:23:54;;;;;;;8.90;2.80;;;;;;;33.06;23.88;101723.41;4990751;28;20018;-60
2022/06/15 11:29:33;;;;;;;5.43;3.08;;;;;;;33.07;23.63;101736.09;4992580;28;20037;-60
2022/06/15 11:32:17;;;;;;;10.68;3.00;;;;;;;33.31;24.12;101731.31;4990776;28;20033;-60
2022/06/15 11:34:58;;;;;;;9.07;3.00;;;;;;;33.29;23.59;101725.22;4993465;28;20080;-60
2022/06/15 11:37:29;;;;;;;8.25;2.70;;;;;;;33.14;23.34;101729.38;4993235;28;20018;-60
2022/06/15 11:40:11;;;;;;;6.18;2.42;;;;;;;33.28;23.98;101731.81;4992969;28;20128;-60
2022/06/15 11:42:36;;;;;;;9.23;2.65;;;;;;;33.43;25.13;101728.50;4993396;28;20034;-60
2022/06/15 11:45:02;;;;;;;6.63;2.70;;;;;;;33.52;23.14;101727.81;4993490;28;20088;-60
2022/06/15 11:47:45;;;;;;;6.53;2.65;;;;;;;33.65;23.57;101726.66;4992792;28;20856;-60
2022/06/15 11:50:28;;;;;;;6.72;2.40;;;;;;;33.71;23.08;101733.13;4993421;28;20066;-60
2022/06/15 11:53:09;;;;;;;7.28;2.70;;;;;;;33.45;23.78;101721.66;4987166;28;20504;-60
2022/06/15 11:56:06;;;;;;;5.65;2.53;;;;;;;33.28;24.51;101721.63;4975689;28;20034;-59
2022/06/15 11:59:01;;;;;;;10.53;3.00;;;;;;;33.16;24.39;101712.63;4983725;28;20042;-60
2022/06/15 12:01:41;;;;;;;4.93;2.78;;;;;;;32.96;24.56;101716.66;4991536;28;20033;-60
2022/06/15 12:04:38;;;;;;;7.45;2.90;;;;;;;32.93;24.03;101708.88;4993192;28;20117;-60
2022/06/15 12:07:33;;;;;;;4.63;2.50;;;;;;;32.76;24.61;101705.22;4990633;28;20085;-59